createdAt,value
2023-03-17T00:01:21.668Z,1.80
2023-03-17T00:03:50.416Z,1.73
2023-03-17T00:06:24.925Z,1.98
2023-03-17T00:08:51.592Z,1.50
2023-03-17T00:11:18.399Z,1.83
2023-03-17T00:13:46.197Z,1.73
2023-03-17T00:16:18.671Z,1.55
2023-03-17T00:18:45.670Z,1.50
2023-03-17T00:21:21.249Z,1.60
2023-03-17T00:23:51.642Z,1.80
2023-03-17T00:26:19.596Z,2.08
2023-03-17T00:28:46.228Z,1.80
2023-03-17T00:31:16.744Z,1.33
2023-03-17T00:33:47.355Z,1.85
2023-03-17T00:36:18.595Z,1.63
2023-03-17T00:38:45.989Z,1.58
2023-03-17T00:41:13.372Z,2.10
2023-03-17T00:43:41.311Z,1.85
2023-03-17T00:46:35.653Z,1.88
2023-03-17T00:49:29.284Z,2.03
2023-03-17T00:51:56.075Z,1.70
2023-03-17T00:54:22.806Z,1.83
2023-03-17T00:56:50.873Z,1.70
2023-03-17T00:59:28.977Z,1.80
2023-03-17T01:01:56.459Z,1.50
2023-03-17T01:04:23.869Z,1.83
2023-03-17T01:06:51.141Z,1.40
2023-03-17T01:09:19.314Z,1.50
2023-03-17T01:11:47.013Z,1.67
2023-03-17T01:14:13.864Z,1.67
2023-03-17T01:16:40.885Z,1.83
2023-03-17T01:19:07.712Z,1.63
2023-03-17T01:21:34.608Z,1.60
2023-03-17T01:24:01.559Z,1.42
2023-03-17T01:26:28.495Z,1.60
2023-03-17T01:28:55.386Z,1.75
2023-03-17T01:31:23.440Z,1.67
2023-03-17T01:33:51.297Z,1.70
2023-03-17T01:36:18.224Z,1.50
2023-03-17T01:38:48.148Z,1.60
2023-03-17T01:41:15.096Z,1.58
2023-03-17T01:43:42.525Z,1.35
2023-03-17T01:46:30.003Z,1.60
2023-03-17T01:49:05.730Z,1.55
2023-03-17T01:51:44.530Z,1.67
2023-03-17T01:54:17.097Z,1.20
2023-03-17T01:56:49.063Z,1.40
2023-03-17T01:59:22.727Z,1.58
2023-03-17T02:01:52.693Z,1.83
2023-03-17T02:04:20.756Z,1.70
2023-03-17T02:06:57.895Z,1.63
2023-03-17T02:09:27.202Z,2.28
2023-03-17T02:11:54.555Z,1.85
2023-03-17T02:14:21.770Z,1.40
2023-03-17T02:16:49.509Z,1.95
2023-03-17T02:19:16.647Z,1.30
2023-03-17T02:21:46.430Z,1.60
2023-03-17T02:24:20.619Z,1.60
2023-03-17T02:26:49.493Z,1.40
2023-03-17T02:29:16.818Z,1.70
2023-03-17T02:31:44.759Z,1.52
2023-03-17T02:34:11.454Z,1.73
2023-03-17T02:36:38.170Z,1.40
2023-03-17T02:39:05.173Z,1.52
2023-03-17T02:41:31.979Z,1.90
2023-03-17T02:43:58.685Z,2.00
2023-03-17T02:46:25.440Z,1.80
2023-03-17T02:48:52.328Z,1.58
2023-03-17T02:51:19.119Z,1.80
2023-03-17T02:53:45.773Z,1.73
2023-03-17T02:56:12.478Z,1.73
2023-03-17T02:58:39.349Z,1.70
2023-03-17T03:01:06.269Z,1.40
2023-03-17T03:03:32.940Z,1.60
2023-03-17T03:06:02.067Z,1.48
2023-03-17T03:08:29.813Z,1.67
2023-03-17T03:10:56.561Z,1.52
2023-03-17T03:13:23.730Z,1.70
2023-03-17T03:15:50.381Z,1.63
2023-03-17T03:18:17.221Z,1.88
2023-03-17T03:20:44.672Z,1.60
2023-03-17T03:23:11.764Z,1.70
2023-03-17T03:25:38.849Z,1.70
2023-03-17T03:28:08.163Z,1.33
2023-03-17T03:30:36.112Z,1.50
2023-03-17T03:33:02.960Z,1.52
2023-03-17T03:35:30.639Z,1.45
2023-03-17T03:37:57.568Z,1.58
2023-03-17T03:40:24.709Z,1.80
2023-03-17T03:42:51.444Z,1.35
2023-03-17T03:45:18.263Z,1.30
2023-03-17T03:47:44.908Z,1.60
2023-03-17T03:50:12.094Z,1.90
2023-03-17T03:52:38.740Z,1.60
2023-03-17T03:55:06.548Z,1.40
2023-03-17T03:57:33.309Z,1.50
2023-03-17T04:00:00.256Z,1.48
2023-03-17T04:02:27.113Z,1.50
2023-03-17T04:04:54.464Z,1.50
2023-03-17T04:07:23.966Z,1.58
2023-03-17T04:09:50.835Z,1.88
2023-03-17T04:12:18.170Z,1.63
2023-03-17T04:14:45.681Z,1.48
2023-03-17T04:17:13.037Z,1.70
2023-03-17T04:19:39.815Z,1.70
2023-03-17T04:22:09.083Z,1.85
2023-03-17T04:24:35.829Z,1.63
2023-03-17T04:27:05.483Z,1.83
2023-03-17T04:29:32.585Z,1.40
2023-03-17T04:31:59.718Z,1.60
2023-03-17T04:34:27.312Z,1.55
2023-03-17T04:36:54.149Z,1.50
2023-03-17T04:39:20.849Z,1.60
2023-03-17T04:41:47.560Z,1.52
2023-03-17T04:44:14.303Z,1.60
2023-03-17T04:46:40.971Z,1.92
2023-03-17T04:49:08.517Z,1.70
2023-03-17T04:51:36.751Z,1.65
2023-03-17T04:54:03.891Z,1.52
2023-03-17T04:56:31.975Z,1.25
2023-03-17T04:58:58.821Z,1.60
2023-03-17T05:01:25.597Z,1.70
2023-03-17T05:03:52.542Z,1.70
2023-03-17T05:06:19.550Z,1.60
2023-03-17T05:08:46.208Z,1.77
2023-03-17T05:11:13.947Z,1.27
2023-03-17T05:13:41.390Z,1.70
2023-03-17T05:16:09.537Z,1.50
2023-03-17T05:18:37.202Z,1.50
2023-03-17T05:21:05.656Z,1.40
2023-03-17T05:23:32.582Z,1.67
2023-03-17T05:25:59.348Z,1.70
2023-03-17T05:28:26.733Z,1.60
2023-03-17T05:30:54.168Z,1.70
2023-03-17T05:33:21.644Z,1.80
2023-03-17T05:35:48.360Z,1.50
2023-03-17T05:38:16.083Z,1.30
2023-03-17T05:40:43.374Z,1.67
2023-03-17T05:43:10.765Z,1.55
2023-03-17T05:45:37.933Z,1.60
2023-03-17T05:48:04.901Z,1.58
2023-03-17T05:50:31.903Z,1.50
2023-03-17T05:52:58.753Z,1.50
2023-03-17T05:55:26.168Z,1.60
2023-03-17T05:57:52.795Z,1.40
2023-03-17T06:00:21.551Z,1.58
2023-03-17T06:02:48.375Z,1.40
2023-03-17T06:05:15.141Z,1.23
2023-03-17T06:07:52.881Z,1.67
2023-03-17T06:10:23.028Z,1.80
2023-03-17T06:12:49.684Z,1.67
2023-03-17T06:15:17.038Z,1.50
2023-03-17T06:17:43.815Z,1.63
2023-03-17T06:20:11.804Z,1.48
2023-03-17T06:22:44.031Z,1.58
2023-03-17T06:25:15.722Z,1.63
2023-03-17T06:27:42.644Z,1.35
2023-03-17T06:30:11.457Z,1.40
2023-03-17T06:32:38.153Z,1.35
2023-03-17T06:35:05.512Z,1.65
2023-03-17T06:37:32.207Z,1.50
2023-03-17T06:40:00.901Z,1.70
2023-03-17T06:42:28.096Z,1.50
2023-03-17T06:44:55.564Z,1.58
2023-03-17T06:47:24.780Z,1.55
2023-03-17T06:49:53.449Z,1.50
2023-03-17T06:52:20.261Z,1.98
2023-03-17T06:54:47.121Z,1.38
2023-03-17T06:57:13.947Z,1.70
2023-03-17T06:59:41.714Z,1.63
2023-03-17T07:02:10.536Z,1.67
2023-03-17T07:04:38.242Z,1.60
2023-03-17T07:07:05.845Z,1.42
2023-03-17T07:09:34.391Z,1.60
2023-03-17T07:12:05.933Z,1.70
2023-03-17T07:17:00.950Z,1.42
2023-03-17T07:19:27.967Z,1.88
2023-03-17T07:21:57.669Z,1.77
2023-03-17T07:24:25.433Z,1.73
2023-03-17T07:26:52.230Z,1.80
2023-03-17T07:29:18.999Z,1.80
2023-03-17T07:31:46.051Z,1.65
2023-03-17T07:34:13.100Z,1.30
2023-03-17T07:36:39.818Z,1.50
2023-03-17T07:39:06.909Z,1.65
2023-03-17T07:41:33.825Z,1.70
2023-03-17T07:44:00.626Z,1.45
2023-03-17T07:46:27.834Z,1.77
2023-03-17T07:48:54.621Z,1.70
2023-03-17T07:51:23.257Z,1.70
2023-03-17T07:53:53.095Z,1.90
2023-03-17T07:56:19.801Z,1.55
2023-03-17T07:58:46.541Z,1.90
2023-03-17T08:01:13.367Z,1.40
2023-03-17T08:03:41.471Z,1.50
2023-03-17T08:06:08.556Z,1.70
2023-03-17T08:08:35.749Z,1.40
2023-03-17T08:11:04.898Z,1.90
2023-03-17T08:13:32.137Z,1.70
2023-03-17T08:15:58.937Z,1.52
2023-03-17T08:18:25.849Z,1.55
2023-03-17T08:20:52.576Z,1.95
2023-03-17T08:23:20.506Z,1.60
2023-03-17T08:25:48.834Z,2.15
2023-03-17T08:28:15.569Z,1.85
2023-03-17T08:30:44.665Z,1.58
2023-03-17T08:33:11.525Z,1.75
2023-03-17T08:35:41.568Z,2.13
2023-03-17T08:38:08.674Z,1.88
2023-03-17T08:40:36.523Z,1.80
2023-03-17T08:43:03.911Z,1.83
2023-03-17T08:45:30.987Z,2.05
2023-03-17T08:47:57.948Z,1.77
2023-03-17T08:50:25.146Z,1.70
2023-03-17T08:52:52.436Z,1.75
2023-03-17T08:55:20.090Z,1.80
2023-03-17T08:57:47.282Z,1.58
2023-03-17T09:00:17.045Z,2.05
2023-03-17T09:02:44.925Z,2.00
2023-03-17T09:05:13.816Z,2.03
2023-03-17T09:07:41.362Z,1.80
2023-03-17T09:10:10.842Z,2.25
2023-03-17T09:12:38.071Z,1.95
2023-03-17T09:15:06.395Z,2.03
2023-03-17T09:17:33.181Z,1.60
2023-03-17T09:19:59.913Z,2.78
2023-03-17T09:22:27.039Z,2.33
2023-03-17T09:24:53.784Z,1.70
2023-03-17T09:27:20.440Z,1.85
2023-03-17T09:29:47.355Z,2.00
2023-03-17T09:32:14.091Z,2.10
2023-03-17T09:34:41.956Z,2.20
2023-03-17T09:37:09.832Z,2.25
2023-03-17T09:39:36.546Z,2.03
2023-03-17T09:42:41.632Z,1.90
2023-03-17T09:45:32.134Z,2.05
2023-03-17T09:48:36.165Z,2.17
2023-03-17T09:51:09.190Z,2.10
2023-03-17T09:53:41.703Z,2.10
2023-03-17T09:56:12.770Z,2.00
2023-03-17T09:58:42.973Z,2.10
2023-03-17T10:01:10.633Z,1.90
2023-03-17T10:03:37.484Z,1.73
2023-03-17T10:06:43.562Z,1.83
2023-03-17T10:09:34.538Z,1.80
2023-03-17T10:12:17.689Z,1.73
2023-03-17T10:14:59.467Z,1.60
2023-03-17T10:17:31.559Z,2.00
2023-03-17T10:20:01.215Z,1.85
2023-03-17T10:22:32.511Z,1.80
2023-03-17T10:25:05.343Z,1.77
2023-03-17T10:27:36.571Z,1.80
2023-03-17T10:30:04.514Z,1.70
2023-03-17T10:32:35.706Z,1.60
2023-03-17T10:35:03.163Z,1.95
2023-03-17T10:37:36.542Z,1.70
2023-03-17T10:40:10.086Z,1.80
2023-03-17T10:42:47.489Z,1.55
2023-03-17T10:45:29.076Z,1.60
2023-03-17T10:50:26.113Z,1.73
2023-03-17T10:53:18.237Z,1.52
2023-03-17T10:55:53.342Z,1.70
2023-03-17T10:58:44.100Z,1.75
2023-03-17T11:01:41.445Z,1.85
2023-03-17T11:04:33.917Z,1.60
2023-03-17T11:07:10.031Z,1.85
2023-03-17T11:09:38.076Z,1.77
2023-03-17T11:12:06.469Z,1.90
2023-03-17T11:14:33.581Z,1.60
2023-03-17T11:17:26.058Z,1.70
2023-03-17T11:20:31.580Z,1.63
2023-03-17T11:23:39.777Z,1.80
2023-03-17T11:26:43.330Z,1.70
2023-03-17T11:29:43.056Z,1.88
2023-03-17T11:32:25.142Z,1.63
2023-03-17T11:35:14.520Z,1.65
2023-03-17T11:37:59.614Z,1.90
2023-03-17T11:40:32.470Z,1.80
2023-03-17T11:43:28.348Z,1.70
2023-03-17T11:46:06.384Z,1.45
2023-03-17T11:48:38.514Z,1.67
2023-03-17T11:51:43.154Z,1.70
2023-03-17T11:54:09.752Z,1.63
2023-03-17T11:57:03.289Z,1.92
2023-03-17T11:59:41.935Z,1.40
2023-03-17T12:02:27.150Z,1.50
2023-03-17T12:05:02.356Z,1.90
2023-03-17T12:07:37.455Z,1.45
2023-03-17T12:10:37.857Z,1.77
2023-03-17T12:13:11.272Z,1.60
2023-03-17T12:15:43.430Z,1.80
2023-03-17T12:18:31.486Z,2.00
2023-03-17T12:21:00.127Z,1.50
2023-03-17T12:23:45.405Z,1.60
2023-03-17T12:26:21.291Z,1.70
2023-03-17T12:29:00.061Z,1.77
2023-03-17T12:31:36.192Z,1.83
2023-03-17T12:34:15.378Z,1.67
2023-03-17T12:36:42.728Z,1.67
2023-03-17T12:39:18.098Z,1.60
2023-03-17T12:42:01.546Z,1.70
2023-03-17T12:44:39.157Z,1.60
2023-03-17T12:47:33.480Z,1.50
2023-03-17T12:50:06.944Z,1.95
2023-03-17T12:52:39.819Z,1.63
2023-03-17T12:55:16.820Z,1.60
2023-03-17T12:57:57.389Z,1.88
2023-03-17T13:00:29.525Z,1.60
2023-03-17T13:03:15.768Z,1.90
2023-03-17T13:05:47.399Z,1.77
2023-03-17T13:08:23.249Z,1.70
2023-03-17T13:10:50.397Z,1.88
2023-03-17T13:13:45.156Z,1.80
2023-03-17T13:16:40.889Z,1.70
2023-03-17T13:19:15.620Z,1.75
2023-03-17T13:21:52.273Z,1.80
2023-03-17T13:24:21.962Z,1.60
2023-03-17T13:27:01.729Z,1.70
2023-03-17T13:29:35.051Z,1.67
2023-03-17T13:32:19.928Z,1.42
2023-03-17T13:34:50.721Z,1.30
2023-03-17T13:37:44.140Z,1.80
2023-03-17T13:40:21.406Z,1.38
2023-03-17T13:42:53.280Z,1.50
2023-03-17T13:45:52.168Z,1.42
2023-03-17T13:48:37.262Z,1.45
2023-03-17T13:51:15.103Z,1.65
2023-03-17T13:53:47.698Z,1.70
2023-03-17T13:56:22.977Z,1.73
2023-03-17T13:59:13.016Z,1.58
2023-03-17T14:01:56.574Z,1.63
2023-03-17T14:04:35.633Z,1.58
2023-03-17T14:07:09.261Z,1.45
2023-03-17T14:09:37.972Z,1.55
2023-03-17T14:12:12.832Z,1.52
2023-03-17T14:14:53.091Z,1.65
2023-03-17T14:17:25.591Z,1.70
2023-03-17T14:20:13.524Z,1.60
2023-03-17T14:22:45.141Z,1.50
2023-03-17T14:25:21.513Z,1.30
2023-03-17T14:27:52.545Z,1.50
2023-03-17T14:30:25.968Z,1.65
2023-03-17T14:33:34.570Z,1.60
2023-03-17T14:36:03.035Z,1.40
2023-03-17T14:38:35.360Z,1.67
2023-03-17T14:41:19.318Z,1.42
2023-03-17T14:43:46.540Z,1.63
2023-03-17T14:46:16.029Z,1.73
2023-03-17T14:48:46.464Z,1.60
2023-03-17T14:51:30.426Z,1.48
2023-03-17T14:54:00.924Z,1.70
2023-03-17T14:56:33.562Z,1.30
2023-03-17T14:59:17.068Z,1.40
2023-03-17T15:01:47.791Z,1.80
2023-03-17T15:04:32.954Z,1.30
2023-03-17T15:07:05.414Z,1.77
2023-03-17T15:09:40.618Z,1.60
2023-03-17T15:12:17.548Z,1.30
2023-03-17T15:14:49.302Z,1.60
2023-03-17T15:17:28.684Z,1.50
2023-03-17T15:19:58.045Z,1.50
2023-03-17T15:22:42.106Z,1.40
2023-03-17T15:25:29.075Z,1.55
2023-03-17T15:27:56.163Z,1.30
2023-03-17T15:30:23.747Z,1.58
2023-03-17T15:33:01.582Z,1.63
2023-03-17T15:35:28.720Z,1.77
2023-03-17T15:37:55.966Z,1.40
2023-03-17T15:40:22.688Z,1.35
2023-03-17T15:42:49.300Z,1.42
2023-03-17T15:45:16.946Z,1.35
2023-03-17T15:47:46.974Z,1.67
2023-03-17T15:50:31.344Z,1.30
2023-03-17T15:52:58.575Z,1.40
2023-03-17T15:55:31.140Z,1.60
2023-03-17T15:57:58.588Z,1.48
2023-03-17T16:00:29.040Z,1.40
2023-03-17T16:02:59.594Z,1.27
2023-03-17T16:05:29.458Z,1.50
2023-03-17T16:07:56.213Z,1.20
2023-03-17T16:10:25.383Z,1.40
2023-03-17T16:12:52.278Z,1.42
2023-03-17T16:15:24.488Z,1.40
2023-03-17T16:17:54.682Z,1.25
2023-03-17T16:20:33.895Z,1.63
2023-03-17T16:23:07.325Z,1.33
2023-03-17T16:25:34.188Z,1.40
2023-03-17T16:28:07.532Z,1.60
2023-03-17T16:30:34.899Z,1.30
2023-03-17T16:33:08.789Z,1.55
2023-03-17T16:35:35.822Z,1.50
2023-03-17T16:38:02.525Z,1.63
2023-03-17T16:40:35.386Z,1.30
2023-03-17T16:43:12.891Z,1.50
2023-03-17T16:45:42.524Z,1.60
2023-03-17T16:48:17.483Z,1.45
2023-03-17T16:50:44.617Z,1.40
2023-03-17T16:53:11.487Z,1.52
2023-03-17T16:55:39.531Z,1.40
2023-03-17T16:58:21.502Z,2.08
2023-03-17T17:00:50.512Z,1.60
2023-03-17T17:03:17.719Z,1.50
2023-03-17T17:05:45.308Z,1.40
2023-03-17T17:08:12.159Z,1.55
2023-03-17T17:10:39.239Z,1.40
2023-03-17T17:13:08.168Z,1.50
2023-03-17T17:15:36.533Z,1.45
2023-03-17T17:18:07.711Z,1.35
2023-03-17T17:20:40.350Z,1.65
2023-03-17T17:23:10.939Z,1.90
2023-03-17T17:25:37.627Z,1.42
2023-03-17T17:28:04.748Z,1.50
2023-03-17T17:30:31.758Z,2.00
2023-03-17T17:32:59.942Z,1.77
2023-03-17T17:35:30.719Z,1.60
2023-03-17T17:37:59.832Z,1.80
2023-03-17T17:40:26.948Z,1.48
2023-03-17T17:42:54.329Z,1.52
2023-03-17T17:45:21.953Z,1.45
2023-03-17T17:47:49.224Z,1.67
2023-03-17T17:50:21.048Z,2.35
2023-03-17T17:52:48.058Z,3.05
2023-03-17T17:55:15.228Z,1.50
2023-03-17T17:57:41.986Z,1.92
2023-03-17T18:00:12.637Z,1.70
2023-03-17T18:02:39.343Z,1.97
2023-03-17T18:05:08.976Z,1.85
2023-03-17T18:07:36.047Z,1.38
2023-03-17T18:10:04.030Z,1.70
2023-03-17T18:12:30.716Z,1.95
2023-03-17T18:14:57.725Z,1.98
2023-03-17T18:17:24.557Z,1.75
2023-03-17T18:19:55.089Z,1.90
2023-03-17T18:22:22.536Z,1.67
2023-03-17T18:24:49.465Z,2.08
2023-03-17T18:27:16.917Z,1.63
2023-03-17T18:29:43.681Z,2.00
2023-03-17T18:32:11.321Z,1.95
2023-03-17T18:34:48.041Z,1.98
2023-03-17T18:37:17.557Z,1.73
2023-03-17T18:39:46.015Z,2.10
2023-03-17T18:42:15.602Z,1.80
2023-03-17T18:44:42.345Z,1.70
2023-03-17T18:47:08.984Z,1.95
2023-03-17T18:49:35.734Z,1.77
2023-03-17T18:52:02.410Z,1.95
2023-03-17T18:54:29.430Z,1.63
2023-03-17T18:56:56.444Z,1.80
2023-03-17T18:59:23.176Z,1.90
2023-03-17T19:01:50.278Z,2.00
2023-03-17T19:04:17.023Z,2.10
2023-03-17T19:06:43.701Z,2.17
2023-03-17T19:09:11.208Z,1.70
2023-03-17T19:11:39.329Z,2.67
2023-03-17T19:14:07.352Z,1.88
2023-03-17T19:16:35.085Z,1.92
2023-03-17T19:19:02.744Z,2.38
2023-03-17T19:21:29.610Z,2.10
2023-03-17T19:23:59.899Z,2.10
2023-03-17T19:26:27.221Z,2.53
2023-03-17T19:28:56.263Z,1.90
2023-03-17T19:31:24.725Z,2.30
2023-03-17T19:33:51.801Z,2.40
2023-03-17T19:36:19.138Z,1.88
2023-03-17T19:38:46.237Z,2.05
2023-03-17T19:41:13.609Z,2.00
2023-03-17T19:43:41.715Z,1.98
2023-03-17T19:46:11.214Z,2.13
2023-03-17T19:48:38.931Z,2.05
2023-03-17T19:51:06.762Z,2.10
2023-03-17T19:53:33.507Z,1.90
2023-03-17T19:56:00.385Z,2.20
2023-03-17T19:58:27.870Z,2.08
2023-03-17T20:00:54.502Z,2.08
2023-03-17T20:03:22.169Z,2.72
2023-03-17T20:05:52.627Z,2.33
2023-03-17T20:08:19.621Z,2.10
2023-03-17T20:10:49.987Z,2.20
2023-03-17T20:13:16.630Z,2.10
2023-03-17T20:15:43.844Z,2.30
2023-03-17T20:18:11.081Z,2.58
2023-03-17T20:20:37.747Z,2.50
2023-03-17T20:23:04.457Z,2.13
2023-03-17T20:25:31.642Z,2.08
2023-03-17T20:28:00.277Z,2.50
2023-03-17T20:30:26.929Z,2.22
2023-03-17T20:32:54.337Z,2.05
2023-03-17T20:35:21.098Z,2.30
2023-03-17T20:37:47.687Z,2.30
2023-03-17T20:40:14.385Z,2.30
2023-03-17T20:42:41.577Z,2.25
2023-03-17T20:45:08.781Z,2.40
2023-03-17T20:47:36.122Z,2.42
2023-03-17T20:50:03.060Z,2.28
2023-03-17T20:52:30.532Z,2.53
2023-03-17T20:54:59.402Z,2.70
2023-03-17T20:57:26.359Z,2.35
2023-03-17T20:59:53.004Z,2.40
2023-03-17T21:02:20.759Z,2.20
2023-03-17T21:04:48.929Z,2.22
2023-03-17T21:07:17.765Z,2.15
2023-03-17T21:09:45.263Z,2.35
2023-03-17T21:12:20.062Z,2.35
2023-03-17T21:14:50.595Z,2.40
2023-03-17T21:17:17.994Z,2.78
2023-03-17T21:19:45.551Z,2.40
2023-03-17T21:22:12.571Z,2.35
2023-03-17T21:24:39.840Z,2.50
2023-03-17T21:27:09.603Z,2.50
2023-03-17T21:29:37.091Z,2.20
2023-03-17T21:32:04.766Z,2.83
2023-03-17T21:34:32.079Z,2.58
2023-03-17T21:36:59.964Z,2.33
2023-03-17T21:39:29.617Z,2.22
2023-03-17T21:41:57.565Z,2.30
2023-03-17T21:44:24.610Z,2.63
2023-03-17T21:46:52.365Z,2.30
2023-03-17T21:49:19.098Z,2.13
2023-03-17T21:51:46.976Z,2.22
2023-03-17T21:54:14.404Z,2.33
2023-03-17T21:56:41.871Z,2.53
2023-03-17T21:59:11.033Z,2.22
2023-03-17T22:01:39.614Z,2.25
2023-03-17T22:04:06.867Z,2.47
2023-03-17T22:06:33.862Z,2.70
2023-03-17T22:09:00.592Z,2.28
2023-03-17T22:11:27.632Z,2.25
2023-03-17T22:13:54.381Z,2.05
2023-03-17T22:16:21.632Z,2.15
2023-03-17T22:18:48.365Z,2.20
2023-03-17T22:21:15.466Z,2.03
2023-03-17T22:23:42.591Z,2.10
2023-03-17T22:26:13.277Z,2.58
2023-03-17T22:28:40.796Z,2.30
2023-03-17T22:31:27.999Z,2.30
2023-03-17T22:33:57.654Z,2.80
2023-03-17T22:36:25.678Z,2.55
2023-03-17T22:38:52.406Z,2.40
2023-03-17T22:41:21.907Z,2.05
2023-03-17T22:43:48.563Z,2.13
2023-03-17T22:46:16.232Z,2.55
2023-03-17T22:48:43.411Z,2.03
2023-03-17T22:51:12.792Z,2.20
2023-03-17T22:53:40.521Z,2.35
2023-03-17T22:56:08.256Z,2.13
2023-03-17T22:58:35.411Z,2.20
2023-03-17T23:01:02.672Z,2.72
2023-03-17T23:03:30.062Z,2.45
2023-03-17T23:05:58.521Z,2.40
2023-03-17T23:08:26.845Z,2.45
2023-03-17T23:10:54.021Z,2.30
2023-03-17T23:13:21.235Z,1.90
2023-03-17T23:15:48.878Z,2.17
2023-03-17T23:18:16.215Z,2.22
2023-03-17T23:20:43.440Z,1.98
2023-03-17T23:23:11.464Z,2.05
2023-03-17T23:25:38.552Z,2.10
2023-03-17T23:28:06.637Z,2.13
2023-03-17T23:30:34.594Z,2.17
2023-03-17T23:33:01.934Z,2.28
2023-03-17T23:35:28.974Z,2.40
2023-03-17T23:37:55.687Z,1.90
2023-03-17T23:40:23.508Z,2.25
2023-03-17T23:42:50.535Z,2.20
2023-03-17T23:45:18.101Z,2.08
2023-03-17T23:47:46.577Z,2.28
2023-03-17T23:50:14.832Z,2.35
2023-03-17T23:52:42.482Z,2.30
2023-03-17T23:55:10.552Z,2.40
2023-03-17T23:57:37.906Z,2.30
